sensor_id;sensor_type;location;lat;lon;timestamp;P1;durP1;ratioP1;P2;durP2;ratioP2
17983;SDS011;9117;52.420;20.728;2023-02-28T00:00:21;40.97;;;15.90;;
17983;SDS011;9117;52.420;20.728;2023-02-28T00:02:50;41.60;;;16.03;;
17983;SDS011;9117;52.420;20.728;2023-02-28T00:05:20;38.60;;;15.87;;
17983;SDS011;9117;52.420;20.728;2023-02-28T00:07:51;38.93;;;15.83;;
17983;SDS011;9117;52.420;20.728;2023-02-28T00:10:20;42.40;;;17.40;;
17983;SDS011;9117;52.420;20.728;2023-02-28T00:12:50;38.90;;;16.60;;
17983;SDS011;9117;52.420;20.728;2023-02-28T00:15:20;44.90;;;15.93;;
17983;SDS011;9117;52.420;20.728;2023-02-28T00:17:49;46.63;;;17.43;;
17983;SDS011;9117;52.420;20.728;2023-02-28T00:20:17;37.83;;;15.60;;
17983;SDS011;9117;52.420;20.728;2023-02-28T00:22:48;39.03;;;15.83;;
17983;SDS011;9117;52.420;20.728;2023-02-28T00:25:19;44.80;;;16.10;;
17983;SDS011;9117;52.420;20.728;2023-02-28T00:27:50;37.00;;;15.20;;
17983;SDS011;9117;52.420;20.728;2023-02-28T00:30:19;44.17;;;17.33;;
17983;SDS011;9117;52.420;20.728;2023-02-28T00:32:48;42.40;;;16.57;;
17983;SDS011;9117;52.420;20.728;2023-02-28T00:35:17;40.33;;;15.70;;
17983;SDS011;9117;52.420;20.728;2023-02-28T00:37:45;41.07;;;15.83;;
17983;SDS011;9117;52.420;20.728;2023-02-28T00:40:16;41.13;;;16.43;;
17983;SDS011;9117;52.420;20.728;2023-02-28T00:42:45;40.17;;;16.77;;
17983;SDS011;9117;52.420;20.728;2023-02-28T00:45:13;40.27;;;16.27;;
17983;SDS011;9117;52.420;20.728;2023-02-28T00:47:41;48.63;;;18.87;;
17983;SDS011;9117;52.420;20.728;2023-02-28T00:50:10;49.93;;;19.03;;
17983;SDS011;9117;52.420;20.728;2023-02-28T00:52:38;45.87;;;17.67;;
17983;SDS011;9117;52.420;20.728;2023-02-28T00:55:07;52.77;;;18.10;;
17983;SDS011;9117;52.420;20.728;2023-02-28T00:57:36;51.33;;;20.33;;
17983;SDS011;9117;52.420;20.728;2023-02-28T01:00:05;87.23;;;27.07;;
17983;SDS011;9117;52.420;20.728;2023-02-28T01:02:34;64.60;;;23.20;;
17983;SDS011;9117;52.420;20.728;2023-02-28T01:05:03;46.93;;;17.43;;
17983;SDS011;9117;52.420;20.728;2023-02-28T01:07:31;47.23;;;17.73;;
17983;SDS011;9117;52.420;20.728;2023-02-28T01:09:59;67.20;;;25.20;;
17983;SDS011;9117;52.420;20.728;2023-02-28T01:12:27;63.07;;;23.60;;
17983;SDS011;9117;52.420;20.728;2023-02-28T01:14:57;52.10;;;20.57;;
17983;SDS011;9117;52.420;20.728;2023-02-28T01:17:27;49.57;;;19.33;;
17983;SDS011;9117;52.420;20.728;2023-02-28T01:19:55;41.93;;;17.30;;
17983;SDS011;9117;52.420;20.728;2023-02-28T01:22:23;41.97;;;16.97;;
17983;SDS011;9117;52.420;20.728;2023-02-28T01:24:51;51.80;;;18.17;;
17983;SDS011;9117;52.420;20.728;2023-02-28T01:27:20;48.43;;;17.90;;
17983;SDS011;9117;52.420;20.728;2023-02-28T01:29:48;44.90;;;16.77;;
17983;SDS011;9117;52.420;20.728;2023-02-28T01:32:19;45.17;;;18.10;;
17983;SDS011;9117;52.420;20.728;2023-02-28T01:34:47;41.67;;;15.70;;
17983;SDS011;9117;52.420;20.728;2023-02-28T01:37:16;40.87;;;16.20;;
17983;SDS011;9117;52.420;20.728;2023-02-28T01:39:44;39.37;;;16.10;;
17983;SDS011;9117;52.420;20.728;2023-02-28T01:42:12;52.90;;;18.20;;
17983;SDS011;9117;52.420;20.728;2023-02-28T01:47:36;40.87;;;16.73;;
17983;SDS011;9117;52.420;20.728;2023-02-28T01:50:09;42.40;;;16.40;;
17983;SDS011;9117;52.420;20.728;2023-02-28T01:52:40;45.20;;;16.60;;
17983;SDS011;9117;52.420;20.728;2023-02-28T01:55:09;43.07;;;17.23;;
17983;SDS011;9117;52.420;20.728;2023-02-28T01:57:40;51.00;;;18.57;;
17983;SDS011;9117;52.420;20.728;2023-02-28T02:00:11;49.73;;;18.43;;
17983;SDS011;9117;52.420;20.728;2023-02-28T02:02:43;46.17;;;18.33;;
17983;SDS011;9117;52.420;20.728;2023-02-28T02:05:14;47.70;;;17.63;;
17983;SDS011;9117;52.420;20.728;2023-02-28T02:07:45;48.00;;;17.57;;
17983;SDS011;9117;52.420;20.728;2023-02-28T02:10:16;43.13;;;17.10;;
17983;SDS011;9117;52.420;20.728;2023-02-28T02:12:51;48.23;;;18.63;;
17983;SDS011;9117;52.420;20.728;2023-02-28T02:15:40;44.23;;;17.23;;
17983;SDS011;9117;52.420;20.728;2023-02-28T02:18:19;43.70;;;17.00;;
17983;SDS011;9117;52.420;20.728;2023-02-28T02:21:05;41.13;;;16.20;;
17983;SDS011;9117;52.420;20.728;2023-02-28T02:33:27;45.33;;;18.40;;
17983;SDS011;9117;52.420;20.728;2023-02-28T02:36:17;50.63;;;18.47;;
17983;SDS011;9117;52.420;20.728;2023-02-28T02:38:51;43.77;;;17.17;;
17983;SDS011;9117;52.420;20.728;2023-02-28T02:41:25;45.47;;;16.60;;
17983;SDS011;9117;52.420;20.728;2023-02-28T02:44:02;43.23;;;16.73;;
17983;SDS011;9117;52.420;20.728;2023-02-28T02:46:34;43.60;;;17.07;;
17983;SDS011;9117;52.420;20.728;2023-02-28T02:49:06;37.03;;;16.60;;
17983;SDS011;9117;52.420;20.728;2023-02-28T02:51:38;40.23;;;15.10;;
17983;SDS011;9117;52.420;20.728;2023-02-28T02:54:10;41.23;;;16.30;;
17983;SDS011;9117;52.420;20.728;2023-02-28T02:56:42;41.20;;;16.67;;
17983;SDS011;9117;52.420;20.728;2023-02-28T02:59:13;39.77;;;15.77;;
17983;SDS011;9117;52.420;20.728;2023-02-28T03:01:48;36.03;;;15.50;;
17983;SDS011;9117;52.420;20.728;2023-02-28T03:04:18;42.63;;;16.13;;
17983;SDS011;9117;52.420;20.728;2023-02-28T03:06:50;42.30;;;16.87;;
17983;SDS011;9117;52.420;20.728;2023-02-28T03:09:21;41.43;;;17.60;;
17983;SDS011;9117;52.420;20.728;2023-02-28T03:11:49;39.43;;;15.77;;
17983;SDS011;9117;52.420;20.728;2023-02-28T03:14:27;39.43;;;16.07;;
17983;SDS011;9117;52.420;20.728;2023-02-28T03:17:13;38.23;;;15.47;;
17983;SDS011;9117;52.420;20.728;2023-02-28T03:19:51;32.57;;;14.50;;
17983;SDS011;9117;52.420;20.728;2023-02-28T03:22:42;35.93;;;14.37;;
17983;SDS011;9117;52.420;20.728;2023-02-28T03:25:20;36.23;;;14.17;;
17983;SDS011;9117;52.420;20.728;2023-02-28T03:28:00;37.43;;;15.17;;
17983;SDS011;9117;52.420;20.728;2023-02-28T03:30:36;44.00;;;17.33;;
17983;SDS011;9117;52.420;20.728;2023-02-28T03:33:10;41.87;;;18.10;;
17983;SDS011;9117;52.420;20.728;2023-02-28T03:35:42;44.03;;;17.30;;
17983;SDS011;9117;52.420;20.728;2023-02-28T03:38:15;41.03;;;16.53;;
17983;SDS011;9117;52.420;20.728;2023-02-28T03:40:48;44.03;;;17.57;;
17983;SDS011;9117;52.420;20.728;2023-02-28T03:43:20;40.90;;;15.63;;
17983;SDS011;9117;52.420;20.728;2023-02-28T03:45:52;37.87;;;15.67;;
17983;SDS011;9117;52.420;20.728;2023-02-28T03:48:24;41.20;;;15.80;;
17983;SDS011;9117;52.420;20.728;2023-02-28T03:50:58;39.57;;;16.43;;
17983;SDS011;9117;52.420;20.728;2023-02-28T03:53:30;38.27;;;15.47;;
17983;SDS011;9117;52.420;20.728;2023-02-28T03:56:03;41.43;;;14.43;;
17983;SDS011;9117;52.420;20.728;2023-02-28T03:58:37;43.77;;;15.87;;
17983;SDS011;9117;52.420;20.728;2023-02-28T04:01:10;38.63;;;15.53;;
17983;SDS011;9117;52.420;20.728;2023-02-28T04:03:45;38.77;;;14.90;;
17983;SDS011;9117;52.420;20.728;2023-02-28T04:06:14;32.50;;;14.00;;
17983;SDS011;9117;52.420;20.728;2023-02-28T04:08:46;36.43;;;14.73;;
17983;SDS011;9117;52.420;20.728;2023-02-28T04:11:17;37.63;;;15.23;;
17983;SDS011;9117;52.420;20.728;2023-02-28T04:13:48;41.57;;;15.00;;
17983;SDS011;9117;52.420;20.728;2023-02-28T04:16:16;42.63;;;18.43;;
17983;SDS011;9117;52.420;20.728;2023-02-28T04:19:00;35.23;;;16.10;;
17983;SDS011;9117;52.420;20.728;2023-02-28T04:21:30;45.37;;;17.40;;
17983;SDS011;9117;52.420;20.728;2023-02-28T04:24:00;40.23;;;16.20;;
17983;SDS011;9117;52.420;20.728;2023-02-28T04:26:29;39.80;;;17.87;;
17983;SDS011;9117;52.420;20.728;2023-02-28T04:28:58;46.07;;;16.90;;
17983;SDS011;9117;52.420;20.728;2023-02-28T04:31:27;44.00;;;17.63;;
17983;SDS011;9117;52.420;20.728;2023-02-28T04:33:55;38.70;;;15.37;;
17983;SDS011;9117;52.420;20.728;2023-02-28T04:36:24;43.67;;;17.67;;
17983;SDS011;9117;52.420;20.728;2023-02-28T04:38:52;41.13;;;16.00;;
17983;SDS011;9117;52.420;20.728;2023-02-28T04:41:22;46.90;;;15.97;;
17983;SDS011;9117;52.420;20.728;2023-02-28T04:43:51;34.63;;;14.83;;
17983;SDS011;9117;52.420;20.728;2023-02-28T04:46:19;34.23;;;13.27;;
17983;SDS011;9117;52.420;20.728;2023-02-28T04:48:47;43.20;;;14.33;;
17983;SDS011;9117;52.420;20.728;2023-02-28T04:51:17;36.03;;;14.93;;
17983;SDS011;9117;52.420;20.728;2023-02-28T04:53:46;37.73;;;15.40;;
17983;SDS011;9117;52.420;20.728;2023-02-28T04:56:15;47.13;;;15.13;;
17983;SDS011;9117;52.420;20.728;2023-02-28T04:58:46;43.10;;;15.47;;
17983;SDS011;9117;52.420;20.728;2023-02-28T05:01:16;35.37;;;14.00;;
17983;SDS011;9117;52.420;20.728;2023-02-28T05:03:47;42.80;;;15.03;;
17983;SDS011;9117;52.420;20.728;2023-02-28T05:06:16;39.77;;;15.23;;
17983;SDS011;9117;52.420;20.728;2023-02-28T05:08:45;34.40;;;14.60;;
17983;SDS011;9117;52.420;20.728;2023-02-28T05:11:14;36.03;;;14.10;;
17983;SDS011;9117;52.420;20.728;2023-02-28T05:13:46;37.43;;;14.47;;
17983;SDS011;9117;52.420;20.728;2023-02-28T05:16:15;36.77;;;15.13;;
17983;SDS011;9117;52.420;20.728;2023-02-28T05:18:44;40.73;;;16.57;;
17983;SDS011;9117;52.420;20.728;2023-02-28T05:21:21;35.77;;;14.97;;
17983;SDS011;9117;52.420;20.728;2023-02-28T05:23:52;38.47;;;15.33;;
17983;SDS011;9117;52.420;20.728;2023-02-28T05:26:21;40.73;;;15.93;;
17983;SDS011;9117;52.420;20.728;2023-02-28T05:28:51;43.00;;;15.03;;
17983;SDS011;9117;52.420;20.728;2023-02-28T05:31:20;37.63;;;16.37;;
17983;SDS011;9117;52.420;20.728;2023-02-28T05:33:48;55.47;;;19.73;;
17983;SDS011;9117;52.420;20.728;2023-02-28T05:36:16;52.87;;;19.17;;
17983;SDS011;9117;52.420;20.728;2023-02-28T05:38:45;54.40;;;17.33;;
17983;SDS011;9117;52.420;20.728;2023-02-28T05:41:15;48.43;;;18.27;;
17983;SDS011;9117;52.420;20.728;2023-02-28T05:43:45;44.90;;;16.13;;
17983;SDS011;9117;52.420;20.728;2023-02-28T05:46:16;44.97;;;17.73;;
17983;SDS011;9117;52.420;20.728;2023-02-28T05:48:45;47.60;;;18.43;;
17983;SDS011;9117;52.420;20.728;2023-02-28T05:51:15;42.90;;;17.37;;
17983;SDS011;9117;52.420;20.728;2023-02-28T05:53:44;45.47;;;17.07;;
17983;SDS011;9117;52.420;20.728;2023-02-28T05:56:13;47.10;;;17.27;;
17983;SDS011;9117;52.420;20.728;2023-02-28T05:58:41;77.40;;;25.73;;
17983;SDS011;9117;52.420;20.728;2023-02-28T06:01:20;66.83;;;23.47;;
17983;SDS011;9117;52.420;20.728;2023-02-28T06:03:50;67.20;;;23.10;;
17983;SDS011;9117;52.420;20.728;2023-02-28T06:06:18;72.00;;;21.77;;
17983;SDS011;9117;52.420;20.728;2023-02-28T06:08:47;57.07;;;20.57;;
17983;SDS011;9117;52.420;20.728;2023-02-28T06:11:15;41.70;;;17.93;;
17983;SDS011;9117;52.420;20.728;2023-02-28T06:13:43;51.77;;;17.40;;
17983;SDS011;9117;52.420;20.728;2023-02-28T06:16:12;52.17;;;17.67;;
17983;SDS011;9117;52.420;20.728;2023-02-28T06:18:41;49.83;;;18.67;;
17983;SDS011;9117;52.420;20.728;2023-02-28T06:21:09;45.67;;;17.33;;
17983;SDS011;9117;52.420;20.728;2023-02-28T06:23:39;40.73;;;16.57;;
17983;SDS011;9117;52.420;20.728;2023-02-28T06:26:07;39.70;;;16.77;;
17983;SDS011;9117;52.420;20.728;2023-02-28T06:28:35;40.33;;;16.17;;
17983;SDS011;9117;52.420;20.728;2023-02-28T06:31:07;38.80;;;17.33;;
17983;SDS011;9117;52.420;20.728;2023-02-28T06:33:37;45.87;;;16.80;;
17983;SDS011;9117;52.420;20.728;2023-02-28T06:36:07;48.97;;;17.60;;
17983;SDS011;9117;52.420;20.728;2023-02-28T06:38:36;51.57;;;19.80;;
17983;SDS011;9117;52.420;20.728;2023-02-28T06:41:05;52.33;;;21.90;;
17983;SDS011;9117;52.420;20.728;2023-02-28T06:43:34;49.47;;;21.17;;
17983;SDS011;9117;52.420;20.728;2023-02-28T06:46:05;51.57;;;20.23;;
17983;SDS011;9117;52.420;20.728;2023-02-28T06:48:34;54.67;;;21.30;;
17983;SDS011;9117;52.420;20.728;2023-02-28T06:51:03;60.67;;;21.77;;
17983;SDS011;9117;52.420;20.728;2023-02-28T06:53:35;71.00;;;21.83;;
17983;SDS011;9117;52.420;20.728;2023-02-28T06:56:04;73.43;;;28.57;;
17983;SDS011;9117;52.420;20.728;2023-02-28T06:58:33;80.30;;;28.70;;
17983;SDS011;9117;52.420;20.728;2023-02-28T07:01:01;90.00;;;25.87;;
17983;SDS011;9117;52.420;20.728;2023-02-28T07:03:30;87.93;;;25.93;;
17983;SDS011;9117;52.420;20.728;2023-02-28T07:06:00;71.57;;;22.80;;
17983;SDS011;9117;52.420;20.728;2023-02-28T07:08:29;70.30;;;21.33;;
17983;SDS011;9117;52.420;20.728;2023-02-28T07:10:59;69.80;;;22.63;;
17983;SDS011;9117;52.420;20.728;2023-02-28T07:13:27;58.43;;;20.63;;
17983;SDS011;9117;52.420;20.728;2023-02-28T07:15:56;58.70;;;20.57;;
17983;SDS011;9117;52.420;20.728;2023-02-28T07:18:26;70.80;;;24.90;;
17983;SDS011;9117;52.420;20.728;2023-02-28T07:20:55;59.00;;;20.23;;
17983;SDS011;9117;52.420;20.728;2023-02-28T07:23:23;49.97;;;20.23;;
17983;SDS011;9117;52.420;20.728;2023-02-28T07:25:51;49.97;;;19.97;;
17983;SDS011;9117;52.420;20.728;2023-02-28T07:28:21;54.57;;;20.27;;
17983;SDS011;9117;52.420;20.728;2023-02-28T07:30:49;51.20;;;19.50;;
17983;SDS011;9117;52.420;20.728;2023-02-28T07:33:17;53.47;;;19.83;;
17983;SDS011;9117;52.420;20.728;2023-02-28T07:35:46;62.37;;;20.83;;
17983;SDS011;9117;52.420;20.728;2023-02-28T07:38:14;50.37;;;18.30;;
17983;SDS011;9117;52.420;20.728;2023-02-28T07:40:42;40.33;;;16.20;;
17983;SDS011;9117;52.420;20.728;2023-02-28T07:43:10;31.93;;;14.53;;
17983;SDS011;9117;52.420;20.728;2023-02-28T07:45:40;33.53;;;13.87;;
17983;SDS011;9117;52.420;20.728;2023-02-28T07:48:08;34.00;;;13.73;;
17983;SDS011;9117;52.420;20.728;2023-02-28T07:50:36;32.20;;;12.70;;
17983;SDS011;9117;52.420;20.728;2023-02-28T07:53:04;27.90;;;12.33;;
17983;SDS011;9117;52.420;20.728;2023-02-28T07:55:32;26.67;;;11.90;;
17983;SDS011;9117;52.420;20.728;2023-02-28T07:58:01;25.27;;;11.33;;
17983;SDS011;9117;52.420;20.728;2023-02-28T08:00:29;25.77;;;11.17;;
17983;SDS011;9117;52.420;20.728;2023-02-28T08:02:59;23.10;;;10.97;;
17983;SDS011;9117;52.420;20.728;2023-02-28T08:05:27;27.70;;;11.03;;
17983;SDS011;9117;52.420;20.728;2023-02-28T08:07:56;25.37;;;10.83;;
17983;SDS011;9117;52.420;20.728;2023-02-28T08:10:24;21.83;;;9.30;;
17983;SDS011;9117;52.420;20.728;2023-02-28T08:12:52;20.97;;;10.13;;
17983;SDS011;9117;52.420;20.728;2023-02-28T08:15:20;18.20;;;9.00;;
17983;SDS011;9117;52.420;20.728;2023-02-28T08:17:49;20.40;;;8.03;;
17983;SDS011;9117;52.420;20.728;2023-02-28T08:20:18;14.97;;;7.00;;
17983;SDS011;9117;52.420;20.728;2023-02-28T08:22:46;15.13;;;7.13;;
17983;SDS011;9117;52.420;20.728;2023-02-28T08:25:14;14.93;;;7.83;;
17983;SDS011;9117;52.420;20.728;2023-02-28T08:27:43;16.10;;;8.17;;
17983;SDS011;9117;52.420;20.728;2023-02-28T08:30:12;19.43;;;8.30;;
17983;SDS011;9117;52.420;20.728;2023-02-28T08:32:41;13.00;;;6.43;;
17983;SDS011;9117;52.420;20.728;2023-02-28T08:35:10;12.07;;;6.50;;
17983;SDS011;9117;52.420;20.728;2023-02-28T08:37:39;15.33;;;7.50;;
17983;SDS011;9117;52.420;20.728;2023-02-28T08:40:08;20.47;;;8.00;;
17983;SDS011;9117;52.420;20.728;2023-02-28T08:42:37;18.70;;;7.43;;
17983;SDS011;9117;52.420;20.728;2023-02-28T08:45:05;16.70;;;8.57;;
17983;SDS011;9117;52.420;20.728;2023-02-28T08:47:34;15.43;;;7.80;;
17983;SDS011;9117;52.420;20.728;2023-02-28T08:50:03;14.63;;;7.33;;
17983;SDS011;9117;52.420;20.728;2023-02-28T08:52:31;15.83;;;7.60;;
17983;SDS011;9117;52.420;20.728;2023-02-28T08:55:01;12.23;;;7.10;;
17983;SDS011;9117;52.420;20.728;2023-02-28T08:57:29;14.67;;;7.63;;
17983;SDS011;9117;52.420;20.728;2023-02-28T08:59:58;13.63;;;6.97;;
17983;SDS011;9117;52.420;20.728;2023-02-28T09:02:26;11.33;;;6.47;;
17983;SDS011;9117;52.420;20.728;2023-02-28T09:04:54;14.03;;;7.10;;
17983;SDS011;9117;52.420;20.728;2023-02-28T09:07:22;16.03;;;6.83;;
17983;SDS011;9117;52.420;20.728;2023-02-28T09:09:51;16.00;;;7.73;;
17983;SDS011;9117;52.420;20.728;2023-02-28T09:12:23;18.50;;;7.50;;
17983;SDS011;9117;52.420;20.728;2023-02-28T09:14:53;16.30;;;7.73;;
17983;SDS011;9117;52.420;20.728;2023-02-28T09:17:21;17.67;;;7.27;;
17983;SDS011;9117;52.420;20.728;2023-02-28T09:19:56;17.33;;;7.80;;
17983;SDS011;9117;52.420;20.728;2023-02-28T09:22:24;23.57;;;9.00;;
17983;SDS011;9117;52.420;20.728;2023-02-28T09:24:53;22.23;;;9.13;;
17983;SDS011;9117;52.420;20.728;2023-02-28T09:27:22;17.40;;;8.77;;
17983;SDS011;9117;52.420;20.728;2023-02-28T09:29:50;18.90;;;8.50;;
17983;SDS011;9117;52.420;20.728;2023-02-28T09:32:18;20.73;;;8.63;;
17983;SDS011;9117;52.420;20.728;2023-02-28T09:34:47;20.10;;;8.87;;
17983;SDS011;9117;52.420;20.728;2023-02-28T09:37:15;19.80;;;8.90;;
17983;SDS011;9117;52.420;20.728;2023-02-28T09:39:43;19.00;;;9.80;;
17983;SDS011;9117;52.420;20.728;2023-02-28T09:42:14;19.37;;;9.13;;
17983;SDS011;9117;52.420;20.728;2023-02-28T09:44:50;18.17;;;9.00;;
17983;SDS011;9117;52.420;20.728;2023-02-28T09:47:21;17.97;;;9.20;;
17983;SDS011;9117;52.420;20.728;2023-02-28T09:49:55;16.00;;;8.00;;
17983;SDS011;9117;52.420;20.728;2023-02-28T09:52:27;19.10;;;8.83;;
17983;SDS011;9117;52.420;20.728;2023-02-28T09:54:59;17.80;;;8.37;;
17983;SDS011;9117;52.420;20.728;2023-02-28T09:57:35;21.07;;;8.77;;
17983;SDS011;9117;52.420;20.728;2023-02-28T10:00:10;17.63;;;8.80;;
17983;SDS011;9117;52.420;20.728;2023-02-28T10:05:33;16.73;;;8.20;;
17983;SDS011;9117;52.420;20.728;2023-02-28T10:08:11;19.87;;;8.27;;
17983;SDS011;9117;52.420;20.728;2023-02-28T10:10:43;15.57;;;7.63;;
17983;SDS011;9117;52.420;20.728;2023-02-28T10:13:15;12.63;;;6.57;;
17983;SDS011;9117;52.420;20.728;2023-02-28T10:15:51;13.80;;;6.93;;
17983;SDS011;9117;52.420;20.728;2023-02-28T10:18:23;13.37;;;6.93;;
17983;SDS011;9117;52.420;20.728;2023-02-28T10:20:54;16.40;;;7.30;;
17983;SDS011;9117;52.420;20.728;2023-02-28T10:23:25;14.60;;;7.30;;
17983;SDS011;9117;52.420;20.728;2023-02-28T10:25:57;13.80;;;7.27;;
17983;SDS011;9117;52.420;20.728;2023-02-28T10:28:28;15.60;;;7.43;;
17983;SDS011;9117;52.420;20.728;2023-02-28T10:30:59;15.37;;;7.60;;
17983;SDS011;9117;52.420;20.728;2023-02-28T10:33:28;14.33;;;7.47;;
17983;SDS011;9117;52.420;20.728;2023-02-28T10:35:58;13.10;;;7.00;;
17983;SDS011;9117;52.420;20.728;2023-02-28T10:38:27;14.87;;;7.73;;
17983;SDS011;9117;52.420;20.728;2023-02-28T10:41:04;14.70;;;7.70;;
17983;SDS011;9117;52.420;20.728;2023-02-28T10:43:34;21.57;;;7.80;;
17983;SDS011;9117;52.420;20.728;2023-02-28T10:46:05;15.90;;;7.30;;
17983;SDS011;9117;52.420;20.728;2023-02-28T10:49:00;13.13;;;7.43;;
17983;SDS011;9117;52.420;20.728;2023-02-28T10:51:34;16.00;;;7.60;;
17983;SDS011;9117;52.420;20.728;2023-02-28T10:54:04;17.23;;;7.30;;
17983;SDS011;9117;52.420;20.728;2023-02-28T10:56:32;18.43;;;9.90;;
17983;SDS011;9117;52.420;20.728;2023-02-28T10:59:02;16.17;;;8.00;;
17983;SDS011;9117;52.420;20.728;2023-02-28T11:01:52;16.60;;;8.77;;
17983;SDS011;9117;52.420;20.728;2023-02-28T11:04:31;15.70;;;7.70;;
17983;SDS011;9117;52.420;20.728;2023-02-28T11:07:03;16.57;;;8.93;;
17983;SDS011;9117;52.420;20.728;2023-02-28T11:09:33;15.93;;;8.33;;
17983;SDS011;9117;52.420;20.728;2023-02-28T11:12:02;13.80;;;7.97;;
17983;SDS011;9117;52.420;20.728;2023-02-28T11:14:34;16.23;;;8.20;;
17983;SDS011;9117;52.420;20.728;2023-02-28T11:17:13;16.00;;;7.97;;
17983;SDS011;9117;52.420;20.728;2023-02-28T11:19:47;16.17;;;8.03;;
17983;SDS011;9117;52.420;20.728;2023-02-28T11:22:19;16.80;;;8.43;;
17983;SDS011;9117;52.420;20.728;2023-02-28T11:24:51;18.27;;;8.67;;
17983;SDS011;9117;52.420;20.728;2023-02-28T11:27:26;19.17;;;8.67;;
17983;SDS011;9117;52.420;20.728;2023-02-28T11:30:22;15.83;;;7.10;;
17983;SDS011;9117;52.420;20.728;2023-02-28T11:32:54;13.37;;;7.07;;
17983;SDS011;9117;52.420;20.728;2023-02-28T11:35:23;16.37;;;7.97;;
17983;SDS011;9117;52.420;20.728;2023-02-28T11:37:56;15.07;;;6.93;;
17983;SDS011;9117;52.420;20.728;2023-02-28T11:40:28;15.13;;;8.13;;
17983;SDS011;9117;52.420;20.728;2023-02-28T11:43:08;15.40;;;7.27;;
17983;SDS011;9117;52.420;20.728;2023-02-28T11:45:58;14.63;;;7.10;;
17983;SDS011;9117;52.420;20.728;2023-02-28T11:48:40;13.60;;;7.80;;
17983;SDS011;9117;52.420;20.728;2023-02-28T11:51:18;12.93;;;7.17;;
17983;SDS011;9117;52.420;20.728;2023-02-28T11:56:50;15.13;;;7.33;;
17983;SDS011;9117;52.420;20.728;2023-02-28T11:59:29;18.60;;;8.67;;
17983;SDS011;9117;52.420;20.728;2023-02-28T12:02:25;13.43;;;7.43;;
17983;SDS011;9117;52.420;20.728;2023-02-28T12:05:10;14.50;;;6.93;;
17983;SDS011;9117;52.420;20.728;2023-02-28T12:07:55;14.03;;;6.70;;
17983;SDS011;9117;52.420;20.728;2023-02-28T12:10:29;17.07;;;7.63;;
17983;SDS011;9117;52.420;20.728;2023-02-28T12:13:06;17.30;;;7.37;;
17983;SDS011;9117;52.420;20.728;2023-02-28T12:15:58;12.27;;;6.73;;
17983;SDS011;9117;52.420;20.728;2023-02-28T12:18:44;14.23;;;6.57;;
17983;SDS011;9117;52.420;20.728;2023-02-28T12:21:24;15.20;;;7.47;;
17983;SDS011;9117;52.420;20.728;2023-02-28T12:24:06;14.43;;;7.53;;
17983;SDS011;9117;52.420;20.728;2023-02-28T12:26:46;14.37;;;7.70;;
17983;SDS011;9117;52.420;20.728;2023-02-28T12:29:18;13.10;;;7.43;;
17983;SDS011;9117;52.420;20.728;2023-02-28T12:31:52;14.30;;;7.60;;
17983;SDS011;9117;52.420;20.728;2023-02-28T12:34:25;14.23;;;7.53;;
17983;SDS011;9117;52.420;20.728;2023-02-28T12:36:58;12.80;;;7.00;;
17983;SDS011;9117;52.420;20.728;2023-02-28T12:39:34;16.07;;;6.67;;
17983;SDS011;9117;52.420;20.728;2023-02-28T12:42:17;12.37;;;7.00;;
17983;SDS011;9117;52.420;20.728;2023-02-28T12:44:51;15.10;;;7.37;;
17983;SDS011;9117;52.420;20.728;2023-02-28T12:47:24;14.00;;;7.93;;
17983;SDS011;9117;52.420;20.728;2023-02-28T12:49:53;15.67;;;7.60;;
17983;SDS011;9117;52.420;20.728;2023-02-28T12:52:28;14.50;;;8.03;;
17983;SDS011;9117;52.420;20.728;2023-02-28T12:55:05;15.07;;;6.97;;
17983;SDS011;9117;52.420;20.728;2023-02-28T12:57:41;15.30;;;7.10;;
17983;SDS011;9117;52.420;20.728;2023-02-28T13:00:15;14.30;;;6.93;;
17983;SDS011;9117;52.420;20.728;2023-02-28T13:02:50;13.77;;;7.57;;
17983;SDS011;9117;52.420;20.728;2023-02-28T13:05:46;14.67;;;8.23;;
17983;SDS011;9117;52.420;20.728;2023-02-28T13:08:46;13.23;;;7.70;;
17983;SDS011;9117;52.420;20.728;2023-02-28T13:11:39;17.77;;;8.57;;
17983;SDS011;9117;52.420;20.728;2023-02-28T13:17:09;14.33;;;8.00;;
17983;SDS011;9117;52.420;20.728;2023-02-28T13:19:40;15.27;;;6.63;;
17983;SDS011;9117;52.420;20.728;2023-02-28T13:22:18;14.03;;;7.30;;
17983;SDS011;9117;52.420;20.728;2023-02-28T13:24:49;13.40;;;7.80;;
17983;SDS011;9117;52.420;20.728;2023-02-28T13:27:24;15.10;;;7.63;;
17983;SDS011;9117;52.420;20.728;2023-02-28T13:30:00;14.80;;;7.13;;
17983;SDS011;9117;52.420;20.728;2023-02-28T13:32:51;12.87;;;7.23;;
17983;SDS011;9117;52.420;20.728;2023-02-28T13:36:00;15.03;;;7.50;;
17983;SDS011;9117;52.420;20.728;2023-02-28T13:38:37;16.13;;;7.90;;
17983;SDS011;9117;52.420;20.728;2023-02-28T13:44:13;17.47;;;9.03;;
17983;SDS011;9117;52.420;20.728;2023-02-28T13:49:48;16.37;;;8.47;;
17983;SDS011;9117;52.420;20.728;2023-02-28T13:52:19;17.90;;;8.83;;
17983;SDS011;9117;52.420;20.728;2023-02-28T13:57:58;19.70;;;8.30;;
17983;SDS011;9117;52.420;20.728;2023-02-28T14:00:49;15.43;;;7.60;;
17983;SDS011;9117;52.420;20.728;2023-02-28T14:03:37;15.00;;;8.27;;
17983;SDS011;9117;52.420;20.728;2023-02-28T14:06:22;13.87;;;7.50;;
17983;SDS011;9117;52.420;20.728;2023-02-28T14:08:55;15.95;;;8.73;;
17983;SDS011;9117;52.420;20.728;2023-02-28T14:11:28;13.77;;;7.97;;
17983;SDS011;9117;52.420;20.728;2023-02-28T14:14:00;16.55;;;8.65;;
17983;SDS011;9117;52.420;20.728;2023-02-28T14:16:35;17.05;;;8.68;;
17983;SDS011;9117;52.420;20.728;2023-02-28T14:19:10;15.15;;;7.72;;
17983;SDS011;9117;52.420;20.728;2023-02-28T14:21:45;20.90;;;8.32;;
17983;SDS011;9117;52.420;20.728;2023-02-28T14:24:34;17.23;;;8.90;;
17983;SDS011;9117;52.420;20.728;2023-02-28T14:27:24;19.55;;;8.38;;
17983;SDS011;9117;52.420;20.728;2023-02-28T14:33:14;15.20;;;8.25;;
17983;SDS011;9117;52.420;20.728;2023-02-28T14:35:53;16.38;;;8.05;;
17983;SDS011;9117;52.420;20.728;2023-02-28T14:38:30;14.13;;;8.43;;
17983;SDS011;9117;52.420;20.728;2023-02-28T14:41:03;17.75;;;8.63;;
17983;SDS011;9117;52.420;20.728;2023-02-28T14:43:46;21.57;;;9.97;;
17983;SDS011;9117;52.420;20.728;2023-02-28T14:46:16;15.23;;;8.90;;
17983;SDS011;9117;52.420;20.728;2023-02-28T14:48:47;16.40;;;8.67;;
17983;SDS011;9117;52.420;20.728;2023-02-28T14:51:20;16.38;;;8.27;;
17983;SDS011;9117;52.420;20.728;2023-02-28T14:53:55;14.77;;;8.55;;
17983;SDS011;9117;52.420;20.728;2023-02-28T14:56:26;16.77;;;8.80;;
17983;SDS011;9117;52.420;20.728;2023-02-28T14:59:02;14.67;;;8.87;;
17983;SDS011;9117;52.420;20.728;2023-02-28T15:01:31;12.48;;;7.70;;
17983;SDS011;9117;52.420;20.728;2023-02-28T15:04:02;13.30;;;7.93;;
17983;SDS011;9117;52.420;20.728;2023-02-28T15:06:32;21.40;;;10.63;;
17983;SDS011;9117;52.420;20.728;2023-02-28T15:09:07;18.83;;;9.87;;
17983;SDS011;9117;52.420;20.728;2023-02-28T15:11:37;18.37;;;8.97;;
17983;SDS011;9117;52.420;20.728;2023-02-28T15:14:07;14.90;;;7.67;;
17983;SDS011;9117;52.420;20.728;2023-02-28T15:16:41;20.57;;;8.93;;
17983;SDS011;9117;52.420;20.728;2023-02-28T15:19:14;18.10;;;9.67;;
17983;SDS011;9117;52.420;20.728;2023-02-28T15:21:48;16.97;;;8.30;;
17983;SDS011;9117;52.420;20.728;2023-02-28T15:24:19;20.43;;;9.23;;
17983;SDS011;9117;52.420;20.728;2023-02-28T15:26:54;17.87;;;8.23;;
17983;SDS011;9117;52.420;20.728;2023-02-28T15:29:25;19.37;;;10.50;;
17983;SDS011;9117;52.420;20.728;2023-02-28T15:31:56;17.93;;;8.83;;